sensor_id;sensor_type;location;lat;lon;timestamp;temperature;humidity
1538;DHT22;12022;52.266;10.522;2023-05-23T00:01:49;18.20;99.90
1538;DHT22;12022;52.266;10.522;2023-05-23T00:04:20;18.20;99.90
1538;DHT22;12022;52.266;10.522;2023-05-23T00:06:47;18.20;99.90
1538;DHT22;12022;52.266;10.522;2023-05-23T00:09:16;18.20;99.90
1538;DHT22;12022;52.266;10.522;2023-05-23T00:11:43;18.20;99.90
1538;DHT22;12022;52.266;10.522;2023-05-23T00:14:12;18.20;99.90
1538;DHT22;12022;52.266;10.522;2023-05-23T00:16:40;18.20;99.90
1538;DHT22;12022;52.266;10.522;2023-05-23T00:19:10;18.20;99.90
1538;DHT22;12022;52.266;10.522;2023-05-23T00:21:38;18.20;99.90
1538;DHT22;12022;52.266;10.522;2023-05-23T00:24:05;18.20;99.90
1538;DHT22;12022;52.266;10.522;2023-05-23T00:26:33;18.10;99.90
1538;DHT22;12022;52.266;10.522;2023-05-23T00:29:02;18.10;99.90
1538;DHT22;12022;52.266;10.522;2023-05-23T00:31:30;18.00;99.90
1538;DHT22;12022;52.266;10.522;2023-05-23T00:33:57;17.90;99.90
1538;DHT22;12022;52.266;10.522;2023-05-23T00:36:24;18.00;99.90
1538;DHT22;12022;52.266;10.522;2023-05-23T00:38:51;18.00;99.90
1538;DHT22;12022;52.266;10.522;2023-05-23T00:41:19;17.90;99.90
1538;DHT22;12022;52.266;10.522;2023-05-23T00:43:46;17.90;99.90
1538;DHT22;12022;52.266;10.522;2023-05-23T00:46:15;18.00;99.90
1538;DHT22;12022;52.266;10.522;2023-05-23T00:48:42;18.00;99.90
1538;DHT22;12022;52.266;10.522;2023-05-23T00:51:09;17.90;99.90
1538;DHT22;12022;52.266;10.522;2023-05-23T00:53:36;17.90;99.90
1538;DHT22;12022;52.266;10.522;2023-05-23T00:56:03;17.80;99.90
1538;DHT22;12022;52.266;10.522;2023-05-23T00:58:31;17.70;99.90
1538;DHT22;12022;52.266;10.522;2023-05-23T01:00:58;17.80;99.90
1538;DHT22;12022;52.266;10.522;2023-05-23T01:03:28;17.70;99.90
1538;DHT22;12022;52.266;10.522;2023-05-23T01:05:56;17.70;99.90
1538;DHT22;12022;52.266;10.522;2023-05-23T01:08:23;17.70;99.90
1538;DHT22;12022;52.266;10.522;2023-05-23T01:10:50;17.60;99.90
1538;DHT22;12022;52.266;10.522;2023-05-23T01:13:33;17.60;99.90
1538;DHT22;12022;52.266;10.522;2023-05-23T01:16:10;17.60;99.90
1538;DHT22;12022;52.266;10.522;2023-05-23T01:21:52;17.70;99.90
1538;DHT22;12022;52.266;10.522;2023-05-23T01:24:26;17.70;99.90
1538;DHT22;12022;52.266;10.522;2023-05-23T01:27:09;17.70;99.90
1538;DHT22;12022;52.266;10.522;2023-05-23T01:29:45;17.80;99.90
1538;DHT22;12022;52.266;10.522;2023-05-23T01:32:15;17.80;99.90
1538;DHT22;12022;52.266;10.522;2023-05-23T01:34:42;17.80;99.90
1538;DHT22;12022;52.266;10.522;2023-05-23T01:37:10;17.80;99.90
1538;DHT22;12022;52.266;10.522;2023-05-23T01:39:40;17.80;99.90
1538;DHT22;12022;52.266;10.522;2023-05-23T01:42:07;17.80;99.90
1538;DHT22;12022;52.266;10.522;2023-05-23T01:44:35;17.70;99.90
1538;DHT22;12022;52.266;10.522;2023-05-23T01:47:05;17.60;99.90
1538;DHT22;12022;52.266;10.522;2023-05-23T01:49:33;17.60;99.90
1538;DHT22;12022;52.266;10.522;2023-05-23T01:52:01;17.50;99.90
1538;DHT22;12022;52.266;10.522;2023-05-23T01:54:29;17.50;99.90
1538;DHT22;12022;52.266;10.522;2023-05-23T01:56:56;17.40;99.90
1538;DHT22;12022;52.266;10.522;2023-05-23T01:59:24;17.30;99.90
1538;DHT22;12022;52.266;10.522;2023-05-23T02:01:51;17.20;99.90
1538;DHT22;12022;52.266;10.522;2023-05-23T02:04:18;17.30;99.90
1538;DHT22;12022;52.266;10.522;2023-05-23T02:06:45;17.30;99.90
1538;DHT22;12022;52.266;10.522;2023-05-23T02:09:13;17.30;99.90
1538;DHT22;12022;52.266;10.522;2023-05-23T02:11:40;17.30;99.90
1538;DHT22;12022;52.266;10.522;2023-05-23T02:14:09;17.30;99.90
1538;DHT22;12022;52.266;10.522;2023-05-23T02:16:36;17.40;99.90
1538;DHT22;12022;52.266;10.522;2023-05-23T02:19:03;17.40;99.90
1538;DHT22;12022;52.266;10.522;2023-05-23T02:21:30;17.40;99.90
1538;DHT22;12022;52.266;10.522;2023-05-23T02:24:01;17.30;99.90
1538;DHT22;12022;52.266;10.522;2023-05-23T02:26:27;17.30;99.90
1538;DHT22;12022;52.266;10.522;2023-05-23T02:28:54;17.40;99.90
1538;DHT22;12022;52.266;10.522;2023-05-23T02:31:22;17.40;99.90
1538;DHT22;12022;52.266;10.522;2023-05-23T02:33:49;17.40;99.90
1538;DHT22;12022;52.266;10.522;2023-05-23T02:36:16;17.30;99.90
1538;DHT22;12022;52.266;10.522;2023-05-23T02:38:43;17.30;99.90
1538;DHT22;12022;52.266;10.522;2023-05-23T02:41:10;17.30;99.90
1538;DHT22;12022;52.266;10.522;2023-05-23T02:43:38;17.30;99.90
1538;DHT22;12022;52.266;10.522;2023-05-23T02:46:05;17.30;99.90
1538;DHT22;12022;52.266;10.522;2023-05-23T02:48:32;17.30;99.90
1538;DHT22;12022;52.266;10.522;2023-05-23T02:50:59;17.30;99.90
1538;DHT22;12022;52.266;10.522;2023-05-23T02:53:27;17.20;99.90
1538;DHT22;12022;52.266;10.522;2023-05-23T02:55:54;17.20;99.90
1538;DHT22;12022;52.266;10.522;2023-05-23T02:58:21;17.20;99.90
1538;DHT22;12022;52.266;10.522;2023-05-23T03:00:48;17.20;99.90
1538;DHT22;12022;52.266;10.522;2023-05-23T03:03:15;17.10;99.90
1538;DHT22;12022;52.266;10.522;2023-05-23T03:05:43;17.10;99.90
1538;DHT22;12022;52.266;10.522;2023-05-23T03:08:10;17.00;99.90
1538;DHT22;12022;52.266;10.522;2023-05-23T03:10:37;16.90;99.90
1538;DHT22;12022;52.266;10.522;2023-05-23T03:13:04;16.80;99.90
1538;DHT22;12022;52.266;10.522;2023-05-23T03:15:31;16.80;99.90
1538;DHT22;12022;52.266;10.522;2023-05-23T03:17:58;16.80;99.90
1538;DHT22;12022;52.266;10.522;2023-05-23T03:20:26;16.70;99.90
1538;DHT22;12022;52.266;10.522;2023-05-23T03:22:53;16.70;99.90
1538;DHT22;12022;52.266;10.522;2023-05-23T03:25:20;16.60;99.90
1538;DHT22;12022;52.266;10.522;2023-05-23T03:27:47;16.70;99.90
1538;DHT22;12022;52.266;10.522;2023-05-23T03:30:14;16.70;99.90
1538;DHT22;12022;52.266;10.522;2023-05-23T03:32:42;16.60;99.90
1538;DHT22;12022;52.266;10.522;2023-05-23T03:35:09;16.50;99.90
1538;DHT22;12022;52.266;10.522;2023-05-23T03:37:37;16.40;99.90
1538;DHT22;12022;52.266;10.522;2023-05-23T03:40:05;16.40;99.90
1538;DHT22;12022;52.266;10.522;2023-05-23T03:42:33;16.30;99.90
1538;DHT22;12022;52.266;10.522;2023-05-23T03:45:00;16.20;99.90
1538;DHT22;12022;52.266;10.522;2023-05-23T03:47:27;16.30;99.90
1538;DHT22;12022;52.266;10.522;2023-05-23T03:49:54;16.30;99.90
1538;DHT22;12022;52.266;10.522;2023-05-23T03:52:22;16.30;99.90
1538;DHT22;12022;52.266;10.522;2023-05-23T03:54:49;16.30;99.90
1538;DHT22;12022;52.266;10.522;2023-05-23T03:57:16;16.30;99.90
1538;DHT22;12022;52.266;10.522;2023-05-23T03:59:43;16.30;99.90
1538;DHT22;12022;52.266;10.522;2023-05-23T04:02:11;16.30;99.90
1538;DHT22;12022;52.266;10.522;2023-05-23T04:04:38;16.30;99.90
1538;DHT22;12022;52.266;10.522;2023-05-23T04:07:05;16.30;99.90
1538;DHT22;12022;52.266;10.522;2023-05-23T04:09:34;16.30;99.90
1538;DHT22;12022;52.266;10.522;2023-05-23T04:12:01;16.30;99.90
1538;DHT22;12022;52.266;10.522;2023-05-23T04:14:28;16.30;99.90
1538;DHT22;12022;52.266;10.522;2023-05-23T04:16:55;16.30;99.90
1538;DHT22;12022;52.266;10.522;2023-05-23T04:19:22;16.30;99.90
1538;DHT22;12022;52.266;10.522;2023-05-23T04:21:50;16.30;99.90
1538;DHT22;12022;52.266;10.522;2023-05-23T04:24:17;16.30;99.90
1538;DHT22;12022;52.266;10.522;2023-05-23T04:26:44;16.30;99.90
1538;DHT22;12022;52.266;10.522;2023-05-23T04:29:12;16.30;99.90
1538;DHT22;12022;52.266;10.522;2023-05-23T04:31:39;16.30;99.90
1538;DHT22;12022;52.266;10.522;2023-05-23T04:34:07;16.30;99.90
1538;DHT22;12022;52.266;10.522;2023-05-23T04:36:35;16.30;99.90
1538;DHT22;12022;52.266;10.522;2023-05-23T04:39:04;16.40;99.90
1538;DHT22;12022;52.266;10.522;2023-05-23T04:41:31;16.40;99.90
1538;DHT22;12022;52.266;10.522;2023-05-23T04:44:00;16.40;99.90
1538;DHT22;12022;52.266;10.522;2023-05-23T04:46:27;16.40;99.90
1538;DHT22;12022;52.266;10.522;2023-05-23T04:48:55;16.50;99.90
1538;DHT22;12022;52.266;10.522;2023-05-23T04:51:24;16.50;99.90
1538;DHT22;12022;52.266;10.522;2023-05-23T04:53:52;16.60;99.90
1538;DHT22;12022;52.266;10.522;2023-05-23T04:56:19;16.70;99.90
1538;DHT22;12022;52.266;10.522;2023-05-23T04:58:47;16.80;99.90
1538;DHT22;12022;52.266;10.522;2023-05-23T05:01:15;16.90;99.90
1538;DHT22;12022;52.266;10.522;2023-05-23T05:03:42;17.00;99.90
1538;DHT22;12022;52.266;10.522;2023-05-23T05:06:09;17.20;99.90
1538;DHT22;12022;52.266;10.522;2023-05-23T05:08:36;17.20;99.90
1538;DHT22;12022;52.266;10.522;2023-05-23T05:11:03;17.30;99.90
1538;DHT22;12022;52.266;10.522;2023-05-23T05:13:30;17.30;99.90
1538;DHT22;12022;52.266;10.522;2023-05-23T05:15:58;17.30;99.90
1538;DHT22;12022;52.266;10.522;2023-05-23T05:18:26;17.20;99.90
1538;DHT22;12022;52.266;10.522;2023-05-23T05:20:53;17.30;99.90
1538;DHT22;12022;52.266;10.522;2023-05-23T05:23:24;17.40;99.90
1538;DHT22;12022;52.266;10.522;2023-05-23T05:25:51;17.40;99.90
1538;DHT22;12022;52.266;10.522;2023-05-23T05:28:18;17.40;99.90
1538;DHT22;12022;52.266;10.522;2023-05-23T05:30:47;17.40;99.90
1538;DHT22;12022;52.266;10.522;2023-05-23T05:33:20;17.30;99.90
1538;DHT22;12022;52.266;10.522;2023-05-23T05:35:50;17.30;99.90
1538;DHT22;12022;52.266;10.522;2023-05-23T05:38:17;17.20;99.90
1538;DHT22;12022;52.266;10.522;2023-05-23T05:40:45;17.10;99.90
1538;DHT22;12022;52.266;10.522;2023-05-23T05:43:12;17.10;99.90
1538;DHT22;12022;52.266;10.522;2023-05-23T05:45:39;17.00;99.90
1538;DHT22;12022;52.266;10.522;2023-05-23T05:48:06;17.00;99.90
1538;DHT22;12022;52.266;10.522;2023-05-23T05:50:34;17.10;99.90
1538;DHT22;12022;52.266;10.522;2023-05-23T05:53:01;17.10;99.90
1538;DHT22;12022;52.266;10.522;2023-05-23T05:55:29;17.30;99.90
1538;DHT22;12022;52.266;10.522;2023-05-23T05:57:56;17.40;99.90
1538;DHT22;12022;52.266;10.522;2023-05-23T06:00:23;17.40;99.90
1538;DHT22;12022;52.266;10.522;2023-05-23T06:02:51;17.50;99.90
1538;DHT22;12022;52.266;10.522;2023-05-23T06:05:19;17.40;99.90
1538;DHT22;12022;52.266;10.522;2023-05-23T06:07:48;17.50;99.90
1538;DHT22;12022;52.266;10.522;2023-05-23T06:10:18;17.40;99.90
1538;DHT22;12022;52.266;10.522;2023-05-23T06:12:45;17.40;99.90
1538;DHT22;12022;52.266;10.522;2023-05-23T06:15:12;17.40;99.90
1538;DHT22;12022;52.266;10.522;2023-05-23T06:17:41;17.30;99.90
1538;DHT22;12022;52.266;10.522;2023-05-23T06:20:09;17.30;99.90
1538;DHT22;12022;52.266;10.522;2023-05-23T06:22:36;17.30;99.90
1538;DHT22;12022;52.266;10.522;2023-05-23T06:25:05;17.30;99.90
1538;DHT22;12022;52.266;10.522;2023-05-23T06:27:32;17.30;99.90
1538;DHT22;12022;52.266;10.522;2023-05-23T06:29:59;17.20;99.90
1538;DHT22;12022;52.266;10.522;2023-05-23T06:32:26;17.10;99.90
1538;DHT22;12022;52.266;10.522;2023-05-23T06:34:54;17.00;99.90
1538;DHT22;12022;52.266;10.522;2023-05-23T06:37:21;16.80;99.90
1538;DHT22;12022;52.266;10.522;2023-05-23T06:42:48;16.60;99.90
1538;DHT22;12022;52.266;10.522;2023-05-23T06:45:15;16.50;99.90
1538;DHT22;12022;52.266;10.522;2023-05-23T06:47:43;16.50;99.90
1538;DHT22;12022;52.266;10.522;2023-05-23T06:50:11;16.50;99.90
1538;DHT22;12022;52.266;10.522;2023-05-23T06:52:39;16.50;99.90
1538;DHT22;12022;52.266;10.522;2023-05-23T06:55:08;16.40;99.90
1538;DHT22;12022;52.266;10.522;2023-05-23T06:57:38;16.50;99.90
1538;DHT22;12022;52.266;10.522;2023-05-23T07:00:06;16.50;99.90
1538;DHT22;12022;52.266;10.522;2023-05-23T07:02:33;16.50;99.90
1538;DHT22;12022;52.266;10.522;2023-05-23T07:05:01;16.50;99.90
1538;DHT22;12022;52.266;10.522;2023-05-23T07:07:28;16.50;99.90
1538;DHT22;12022;52.266;10.522;2023-05-23T07:09:55;16.50;99.90
1538;DHT22;12022;52.266;10.522;2023-05-23T07:12:22;16.60;99.90
1538;DHT22;12022;52.266;10.522;2023-05-23T07:14:50;16.70;99.90
1538;DHT22;12022;52.266;10.522;2023-05-23T07:17:17;16.80;99.90
1538;DHT22;12022;52.266;10.522;2023-05-23T07:19:47;16.70;99.90
1538;DHT22;12022;52.266;10.522;2023-05-23T07:22:14;16.80;99.90
1538;DHT22;12022;52.266;10.522;2023-05-23T07:24:41;16.80;99.90
1538;DHT22;12022;52.266;10.522;2023-05-23T07:27:09;16.90;99.90
1538;DHT22;12022;52.266;10.522;2023-05-23T07:29:36;16.90;99.90
1538;DHT22;12022;52.266;10.522;2023-05-23T07:32:03;16.90;99.90
1538;DHT22;12022;52.266;10.522;2023-05-23T07:34:31;16.90;99.90
1538;DHT22;12022;52.266;10.522;2023-05-23T07:36:58;16.90;99.90
1538;DHT22;12022;52.266;10.522;2023-05-23T07:39:25;16.90;99.90
1538;DHT22;12022;52.266;10.522;2023-05-23T07:41:53;16.90;99.90
1538;DHT22;12022;52.266;10.522;2023-05-23T07:44:21;17.00;99.90
1538;DHT22;12022;52.266;10.522;2023-05-23T07:46:51;17.00;99.90
1538;DHT22;12022;52.266;10.522;2023-05-23T07:49:18;17.00;99.90
1538;DHT22;12022;52.266;10.522;2023-05-23T07:51:46;17.00;99.90
1538;DHT22;12022;52.266;10.522;2023-05-23T07:54:13;17.00;99.90
1538;DHT22;12022;52.266;10.522;2023-05-23T07:56:42;17.00;99.90
1538;DHT22;12022;52.266;10.522;2023-05-23T07:59:09;17.00;99.90
1538;DHT22;12022;52.266;10.522;2023-05-23T08:01:36;17.00;99.90
1538;DHT22;12022;52.266;10.522;2023-05-23T08:04:04;17.00;99.90
1538;DHT22;12022;52.266;10.522;2023-05-23T08:06:32;17.00;99.90
1538;DHT22;12022;52.266;10.522;2023-05-23T08:09:00;17.00;99.90
1538;DHT22;12022;52.266;10.522;2023-05-23T08:11:27;17.00;99.90
1538;DHT22;12022;52.266;10.522;2023-05-23T08:13:56;17.00;99.90
1538;DHT22;12022;52.266;10.522;2023-05-23T08:16:25;17.00;99.90
1538;DHT22;12022;52.266;10.522;2023-05-23T08:18:53;17.00;99.90
1538;DHT22;12022;52.266;10.522;2023-05-23T08:21:21;17.00;99.90
1538;DHT22;12022;52.266;10.522;2023-05-23T08:23:48;16.90;99.90
1538;DHT22;12022;52.266;10.522;2023-05-23T08:26:15;16.90;99.90
1538;DHT22;12022;52.266;10.522;2023-05-23T08:28:43;16.80;99.90
1538;DHT22;12022;52.266;10.522;2023-05-23T08:31:10;16.90;99.90
1538;DHT22;12022;52.266;10.522;2023-05-23T08:33:37;16.80;99.90
1538;DHT22;12022;52.266;10.522;2023-05-23T08:36:04;16.80;99.90
1538;DHT22;12022;52.266;10.522;2023-05-23T08:38:31;16.80;99.90
1538;DHT22;12022;52.266;10.522;2023-05-23T08:41:01;16.80;99.90
1538;DHT22;12022;52.266;10.522;2023-05-23T08:43:28;16.80;99.90
1538;DHT22;12022;52.266;10.522;2023-05-23T08:45:55;16.70;99.90
1538;DHT22;12022;52.266;10.522;2023-05-23T08:48:24;16.70;99.90
1538;DHT22;12022;52.266;10.522;2023-05-23T08:50:52;16.70;99.90
1538;DHT22;12022;52.266;10.522;2023-05-23T08:53:20;16.60;99.90
1538;DHT22;12022;52.266;10.522;2023-05-23T08:55:49;16.60;99.90
1538;DHT22;12022;52.266;10.522;2023-05-23T08:58:18;16.60;99.90
1538;DHT22;12022;52.266;10.522;2023-05-23T09:00:48;16.50;99.90
1538;DHT22;12022;52.266;10.522;2023-05-23T09:03:18;16.40;99.90
1538;DHT22;12022;52.266;10.522;2023-05-23T09:05:45;16.50;99.90
1538;DHT22;12022;52.266;10.522;2023-05-23T09:08:13;16.40;99.90
1538;DHT22;12022;52.266;10.522;2023-05-23T09:10:41;16.40;99.90
1538;DHT22;12022;52.266;10.522;2023-05-23T09:13:09;16.30;99.90
1538;DHT22;12022;52.266;10.522;2023-05-23T09:18:27;16.30;99.90
1538;DHT22;12022;52.266;10.522;2023-05-23T09:20:58;16.20;99.90
1538;DHT22;12022;52.266;10.522;2023-05-23T09:23:32;16.20;99.90
1538;DHT22;12022;52.266;10.522;2023-05-23T09:26:04;16.10;99.90
1538;DHT22;12022;52.266;10.522;2023-05-23T09:28:32;16.10;99.90
1538;DHT22;12022;52.266;10.522;2023-05-23T09:31:00;16.10;99.90
1538;DHT22;12022;52.266;10.522;2023-05-23T09:33:45;16.10;99.90
1538;DHT22;12022;52.266;10.522;2023-05-23T09:36:14;16.20;99.90
1538;DHT22;12022;52.266;10.522;2023-05-23T09:38:42;16.20;99.90
1538;DHT22;12022;52.266;10.522;2023-05-23T09:41:10;16.10;99.90
1538;DHT22;12022;52.266;10.522;2023-05-23T09:43:51;16.10;99.90
1538;DHT22;12022;52.266;10.522;2023-05-23T09:46:20;16.30;99.90
1538;DHT22;12022;52.266;10.522;2023-05-23T09:48:50;16.30;99.90
1538;DHT22;12022;52.266;10.522;2023-05-23T09:51:20;16.40;99.90
1538;DHT22;12022;52.266;10.522;2023-05-23T09:53:51;16.50;99.90
1538;DHT22;12022;52.266;10.522;2023-05-23T09:56:19;16.60;99.90
1538;DHT22;12022;52.266;10.522;2023-05-23T09:58:48;16.60;99.90
1538;DHT22;12022;52.266;10.522;2023-05-23T10:01:15;16.60;99.90
1538;DHT22;12022;52.266;10.522;2023-05-23T10:03:50;16.50;99.90
1538;DHT22;12022;52.266;10.522;2023-05-23T10:06:46;16.30;99.90
1538;DHT22;12022;52.266;10.522;2023-05-23T10:09:18;16.30;99.90
1538;DHT22;12022;52.266;10.522;2023-05-23T10:14:25;16.10;99.90
1538;DHT22;12022;52.266;10.522;2023-05-23T10:17:09;16.10;99.90
1538;DHT22;12022;52.266;10.522;2023-05-23T10:19:46;16.00;99.90
1538;DHT22;12022;52.266;10.522;2023-05-23T10:22:15;16.00;99.90
1538;DHT22;12022;52.266;10.522;2023-05-23T10:24:45;15.80;99.90
1538;DHT22;12022;52.266;10.522;2023-05-23T10:27:14;15.80;99.90
1538;DHT22;12022;52.266;10.522;2023-05-23T10:29:45;15.60;99.90
1538;DHT22;12022;52.266;10.522;2023-05-23T10:32:19;15.60;99.90
1538;DHT22;12022;52.266;10.522;2023-05-23T10:41:11;15.40;99.90
1538;DHT22;12022;52.266;10.522;2023-05-23T10:43:48;15.30;99.90
1538;DHT22;12022;52.266;10.522;2023-05-23T10:46:24;15.20;99.90
1538;DHT22;12022;52.266;10.522;2023-05-23T10:49:11;15.10;99.90
1538;DHT22;12022;52.266;10.522;2023-05-23T10:51:40;15.00;99.90
1538;DHT22;12022;52.266;10.522;2023-05-23T11:00:10;15.00;99.90
1538;DHT22;12022;52.266;10.522;2023-05-23T11:06:06;14.90;99.90
1538;DHT22;12022;52.266;10.522;2023-05-23T11:09:15;14.90;99.90
1538;DHT22;12022;52.266;10.522;2023-05-23T12:08:12;14.20;99.90
1538;DHT22;12022;52.266;10.522;2023-05-23T12:13:43;14.10;99.90
1538;DHT22;12022;52.266;10.522;2023-05-23T12:16:14;14.10;99.90
1538;DHT22;12022;52.266;10.522;2023-05-23T12:19:18;14.10;99.90
1538;DHT22;12022;52.266;10.522;2023-05-23T12:30:42;14.00;99.90
1538;DHT22;12022;52.266;10.522;2023-05-23T12:36:24;14.10;99.90
1538;DHT22;12022;52.266;10.522;2023-05-23T12:45:14;14.10;99.90
1538;DHT22;12022;52.266;10.522;2023-05-23T12:47:42;14.20;99.90
1538;DHT22;12022;52.266;10.522;2023-05-23T12:50:09;14.30;99.90
1538;DHT22;12022;52.266;10.522;2023-05-23T12:52:43;14.30;99.90
1538;DHT22;12022;52.266;10.522;2023-05-23T12:55:12;14.40;99.90
1538;DHT22;12022;52.266;10.522;2023-05-23T12:57:39;14.50;99.90
1538;DHT22;12022;52.266;10.522;2023-05-23T13:02:39;14.50;99.90
1538;DHT22;12022;52.266;10.522;2023-05-23T13:05:16;14.50;99.90
1538;DHT22;12022;52.266;10.522;2023-05-23T13:07:43;14.70;99.90
1538;DHT22;12022;52.266;10.522;2023-05-23T13:10:10;14.70;99.90
1538;DHT22;12022;52.266;10.522;2023-05-23T13:12:37;14.80;99.90
1538;DHT22;12022;52.266;10.522;2023-05-23T13:15:05;15.10;99.90
1538;DHT22;12022;52.266;10.522;2023-05-23T13:17:32;15.30;99.90
1538;DHT22;12022;52.266;10.522;2023-05-23T13:20:00;15.40;99.90
1538;DHT22;12022;52.266;10.522;2023-05-23T13:22:28;15.50;99.90
1538;DHT22;12022;52.266;10.522;2023-05-23T13:24:55;15.70;99.90
1538;DHT22;12022;52.266;10.522;2023-05-23T13:27:22;16.00;99.90
1538;DHT22;12022;52.266;10.522;2023-05-23T13:29:49;16.30;99.90
1538;DHT22;12022;52.266;10.522;2023-05-23T13:32:18;16.60;99.90
1538;DHT22;12022;52.266;10.522;2023-05-23T13:34:46;16.70;99.90
1538;DHT22;12022;52.266;10.522;2023-05-23T13:37:19;16.80;99.90
1538;DHT22;12022;52.266;10.522;2023-05-23T13:39:50;16.90;99.90
1538;DHT22;12022;52.266;10.522;2023-05-23T13:42:17;16.90;99.90
1538;DHT22;12022;52.266;10.522;2023-05-23T13:44:44;16.90;99.90
1538;DHT22;12022;52.266;10.522;2023-05-23T13:47:12;16.90;99.90
1538;DHT22;12022;52.266;10.522;2023-05-23T13:49:40;16.80;99.90
1538;DHT22;12022;52.266;10.522;2023-05-23T13:52:17;16.80;99.90
1538;DHT22;12022;52.266;10.522;2023-05-23T13:54:50;16.90;99.90
1538;DHT22;12022;52.266;10.522;2023-05-23T13:57:17;17.10;99.90
1538;DHT22;12022;52.266;10.522;2023-05-23T13:59:45;17.20;99.90
1538;DHT22;12022;52.266;10.522;2023-05-23T14:02:15;17.20;99.90
1538;DHT22;12022;52.266;10.522;2023-05-23T14:04:44;17.40;99.90
1538;DHT22;12022;52.266;10.522;2023-05-23T14:07:11;17.60;99.90
1538;DHT22;12022;52.266;10.522;2023-05-23T14:09:39;17.70;99.90
1538;DHT22;12022;52.266;10.522;2023-05-23T14:12:06;17.70;99.90
1538;DHT22;12022;52.266;10.522;2023-05-23T14:14:33;17.70;99.90
1538;DHT22;12022;52.266;10.522;2023-05-23T14:17:00;17.70;99.90
1538;DHT22;12022;52.266;10.522;2023-05-23T14:19:27;17.60;99.90
1538;DHT22;12022;52.266;10.522;2023-05-23T14:21:54;17.70;99.90
1538;DHT22;12022;52.266;10.522;2023-05-23T14:24:21;17.80;99.90
1538;DHT22;12022;52.266;10.522;2023-05-23T14:26:57;17.90;99.90
1538;DHT22;12022;52.266;10.522;2023-05-23T14:29:24;17.80;99.90
1538;DHT22;12022;52.266;10.522;2023-05-23T14:31:51;17.90;99.90
1538;DHT22;12022;52.266;10.522;2023-05-23T14:34:18;18.00;99.90
1538;DHT22;12022;52.266;10.522;2023-05-23T14:36:45;18.00;99.90
1538;DHT22;12022;52.266;10.522;2023-05-23T14:39:11;18.00;99.90
1538;DHT22;12022;52.266;10.522;2023-05-23T14:41:39;18.10;99.90
1538;DHT22;12022;52.266;10.522;2023-05-23T14:44:05;18.20;99.90
1538;DHT22;12022;52.266;10.522;2023-05-23T14:46:32;18.00;99.90
1538;DHT22;12022;52.266;10.522;2023-05-23T14:49:00;17.80;99.90
1538;DHT22;12022;52.266;10.522;2023-05-23T14:51:26;17.70;99.90
1538;DHT22;12022;52.266;10.522;2023-05-23T14:54:10;17.50;99.90
1538;DHT22;12022;52.266;10.522;2023-05-23T14:56:37;17.40;99.90
1538;DHT22;12022;52.266;10.522;2023-05-23T14:59:06;17.40;99.90
1538;DHT22;12022;52.266;10.522;2023-05-23T15:01:33;17.40;99.90
1538;DHT22;12022;52.266;10.522;2023-05-23T15:04:03;17.40;99.90
1538;DHT22;12022;52.266;10.522;2023-05-23T15:06:31;17.70;99.90
1538;DHT22;12022;52.266;10.522;2023-05-23T15:08:58;18.00;99.90
1538;DHT22;12022;52.266;10.522;2023-05-23T15:11:25;18.10;99.90
1538;DHT22;12022;52.266;10.522;2023-05-23T15:13:56;18.10;99.90
1538;DHT22;12022;52.266;10.522;2023-05-23T15:16:25;18.10;99.90
1538;DHT22;12022;52.266;10.522;2023-05-23T15:18:52;18.20;99.90
1538;DHT22;12022;52.266;10.522;2023-05-23T15:21:20;18.20;99.90
1538;DHT22;12022;52.266;10.522;2023-05-23T15:23:47;18.00;99.90
1538;DHT22;12022;52.266;10.522;2023-05-23T15:26:14;17.80;99.90
1538;DHT22;12022;52.266;10.522;2023-05-23T15:28:41;17.70;99.90
1538;DHT22;12022;52.266;10.522;2023-05-23T15:31:08;17.60;99.90
1538;DHT22;12022;52.266;10.522;2023-05-23T15:33:36;17.40;99.90
1538;DHT22;12022;52.266;10.522;2023-05-23T15:36:03;17.30;99.90
1538;DHT22;12022;52.266;10.522;2023-05-23T15:38:30;17.10;99.90
1538;DHT22;12022;52.266;10.522;2023-05-23T15:40:57;17.10;99.90
1538;DHT22;12022;52.266;10.522;2023-05-23T15:43:26;17.20;99.90
1538;DHT22;12022;52.266;10.522;2023-05-23T15:45:53;17.20;99.90
1538;DHT22;12022;52.266;10.522;2023-05-23T15:48:20;17.10;99.90
1538;DHT22;12022;52.266;10.522;2023-05-23T15:50:47;17.10;99.90
1538;DHT22;12022;52.266;10.522;2023-05-23T15:53:14;17.10;99.90
1538;DHT22;12022;52.266;10.522;2023-05-23T15:55:41;17.10;99.90
1538;DHT22;12022;52.266;10.522;2023-05-23T15:58:09;17.10;99.90
1538;DHT22;12022;52.266;10.522;2023-05-23T16:00:36;17.20;99.90
1538;DHT22;12022;52.266;10.522;2023-05-23T16:03:03;17.20;99.90
1538;DHT22;12022;52.266;10.522;2023-05-23T16:05:30;17.10;99.90
1538;DHT22;12022;52.266;10.522;2023-05-23T16:07:57;17.10;99.90
1538;DHT22;12022;52.266;10.522;2023-05-23T16:10:25;17.10;99.90
1538;DHT22;12022;52.266;10.522;2023-05-23T16:12:52;17.20;99.90
1538;DHT22;12022;52.266;10.522;2023-05-23T16:15:19;17.20;99.90
1538;DHT22;12022;52.266;10.522;2023-05-23T16:17:46;17.30;99.90
1538;DHT22;12022;52.266;10.522;2023-05-23T16:20:13;17.30;99.90
1538;DHT22;12022;52.266;10.522;2023-05-23T16:22:40;17.30;99.90
1538;DHT22;12022;52.266;10.522;2023-05-23T16:25:09;17.30;99.90
1538;DHT22;12022;52.266;10.522;2023-05-23T16:27:36;17.20;99.90
1538;DHT22;12022;52.266;10.522;2023-05-23T16:30:03;17.20;99.90
1538;DHT22;12022;52.266;10.522;2023-05-23T16:32:32;17.20;99.90
1538;DHT22;12022;52.266;10.522;2023-05-23T16:34:59;17.10;99.90
1538;DHT22;12022;52.266;10.522;2023-05-23T16:37:27;17.10;99.90
1538;DHT22;12022;52.266;10.522;2023-05-23T16:39:54;17.00;99.90
1538;DHT22;12022;52.266;10.522;2023-05-23T16:42:21;17.00;99.90
1538;DHT22;12022;52.266;10.522;2023-05-23T16:44:48;16.90;99.90
1538;DHT22;12022;52.266;10.522;2023-05-23T16:47:15;16.80;99.90
1538;DHT22;12022;52.266;10.522;2023-05-23T16:49:43;16.80;99.90
1538;DHT22;12022;52.266;10.522;2023-05-23T16:52:10;16.70;99.90
1538;DHT22;12022;52.266;10.522;2023-05-23T16:54:37;16.70;99.90
1538;DHT22;12022;52.266;10.522;2023-05-23T16:57:04;16.60;99.90
1538;DHT22;12022;52.266;10.522;2023-05-23T16:59:32;16.60;99.90
1538;DHT22;12022;52.266;10.522;2023-05-23T17:01:59;16.50;99.90
1538;DHT22;12022;52.266;10.522;2023-05-23T17:04:26;16.40;99.90
1538;DHT22;12022;52.266;10.522;2023-05-23T17:06:53;16.30;99.90
1538;DHT22;12022;52.266;10.522;2023-05-23T17:09:21;16.30;99.90
1538;DHT22;12022;52.266;10.522;2023-05-23T17:11:48;16.20;99.90
1538;DHT22;12022;52.266;10.522;2023-05-23T17:14:16;16.20;99.90
1538;DHT22;12022;52.266;10.522;2023-05-23T17:16:46;16.10;99.90
1538;DHT22;12022;52.266;10.522;2023-05-23T17:19:13;16.10;99.90
1538;DHT22;12022;52.266;10.522;2023-05-23T17:21:40;16.00;99.90
1538;DHT22;12022;52.266;10.522;2023-05-23T17:24:07;16.00;99.90
1538;DHT22;12022;52.266;10.522;2023-05-23T17:26:34;15.80;99.90